sensor_id;sensor_type;location;lat;lon;timestamp;pressure;altitude;pressure_sealevel;temperature;humidity
22930;BME280;11630;42.660;23.292;2023-05-02T00:01:22;68975.31;;;13.08;100.00
22930;BME280;11630;42.660;23.292;2023-05-02T00:03:53;68954.05;;;12.91;100.00
22930;BME280;11630;42.660;23.292;2023-05-02T00:06:24;68970.95;;;13.02;100.00
22930;BME280;11630;42.660;23.292;2023-05-02T00:08:53;68964.14;;;12.99;100.00
22930;BME280;11630;42.660;23.292;2023-05-02T00:11:25;68987.30;;;13.19;100.00
22930;BME280;11630;42.660;23.292;2023-05-02T00:13:56;68990.84;;;13.21;100.00
22930;BME280;11630;42.660;23.292;2023-05-02T00:16:26;69009.66;;;13.39;100.00
22930;BME280;11630;42.660;23.292;2023-05-02T00:18:56;69002.56;;;13.33;100.00
22930;BME280;11630;42.660;23.292;2023-05-02T00:21:27;69010.47;;;13.39;100.00
22930;BME280;11630;42.660;23.292;2023-05-02T00:23:56;69018.92;;;13.48;100.00
22930;BME280;11630;42.660;23.292;2023-05-02T00:26:28;69015.38;;;13.46;100.00
22930;BME280;11630;42.660;23.292;2023-05-02T00:28:58;69017.56;;;13.48;100.00
22930;BME280;11630;42.660;23.292;2023-05-02T00:31:32;69014.02;;;13.41;100.00
22930;BME280;11630;42.660;23.292;2023-05-02T00:34:03;69012.38;;;13.32;100.00
22930;BME280;11630;42.660;23.292;2023-05-02T00:36:34;69005.02;;;13.36;100.00
22930;BME280;11630;42.660;23.292;2023-05-02T00:39:05;69006.67;;;13.38;100.00
22930;BME280;11630;42.660;23.292;2023-05-02T00:41:37;69004.48;;;13.36;100.00
22930;BME280;11630;42.660;23.292;2023-05-02T00:44:07;69004.22;;;13.34;100.00
22930;BME280;11630;42.660;23.292;2023-05-02T00:46:38;69014.02;;;13.43;100.00
22930;BME280;11630;42.660;23.292;2023-05-02T00:49:09;69012.92;;;13.40;100.00
22930;BME280;11630;42.660;23.292;2023-05-02T00:51:40;69010.48;;;13.41;100.00
22930;BME280;11630;42.660;23.292;2023-05-02T00:54:12;69014.58;;;13.41;100.00
22930;BME280;11630;42.660;23.292;2023-05-02T00:56:43;69009.66;;;13.42;100.00
22930;BME280;11630;42.660;23.292;2023-05-02T00:59:15;69015.92;;;13.49;100.00
22930;BME280;11630;42.660;23.292;2023-05-02T01:04:30;69011.28;;;13.43;100.00
22930;BME280;11630;42.660;23.292;2023-05-02T01:12:34;69005.84;;;13.36;100.00
22930;BME280;11630;42.660;23.292;2023-05-02T01:15:04;68994.13;;;13.26;100.00
22930;BME280;11630;42.660;23.292;2023-05-02T01:17:36;68995.22;;;13.30;100.00
22930;BME280;11630;42.660;23.292;2023-05-02T01:20:16;69002.58;;;13.28;100.00
22930;BME280;11630;42.660;23.292;2023-05-02T01:22:47;69015.66;;;13.40;100.00
22930;BME280;11630;42.660;23.292;2023-05-02T01:30:47;69003.92;;;13.35;100.00
22930;BME280;11630;42.660;23.292;2023-05-02T01:33:19;69003.66;;;13.34;100.00
22930;BME280;11630;42.660;23.292;2023-05-02T01:35:53;68999.30;;;13.30;100.00
22930;BME280;11630;42.660;23.292;2023-05-02T01:38:24;69007.73;;;13.39;100.00
22930;BME280;11630;42.660;23.292;2023-05-02T01:40:56;69004.47;;;13.31;100.00
22930;BME280;11630;42.660;23.292;2023-05-02T01:43:29;69021.38;;;13.49;100.00
22930;BME280;11630;42.660;23.292;2023-05-02T01:46:02;68984.31;;;13.17;100.00
22930;BME280;11630;42.660;23.292;2023-05-02T01:48:34;69004.47;;;13.31;100.00
22930;BME280;11630;42.660;23.292;2023-05-02T01:51:06;68967.95;;;13.03;100.00
22930;BME280;11630;42.660;23.292;2023-05-02T01:53:38;68981.30;;;13.11;100.00
22930;BME280;11630;42.660;23.292;2023-05-02T01:56:09;68955.95;;;12.94;100.00
22930;BME280;11630;42.660;23.292;2023-05-02T01:58:41;68970.94;;;13.06;100.00
22930;BME280;11630;42.660;23.292;2023-05-02T02:01:15;68942.30;;;12.79;100.00
22930;BME280;11630;42.660;23.292;2023-05-02T02:03:47;68943.68;;;12.82;100.00
22930;BME280;11630;42.660;23.292;2023-05-02T02:06:19;68939.05;;;12.71;100.00
22930;BME280;11630;42.660;23.292;2023-05-02T02:08:51;68937.13;;;12.71;100.00
22930;BME280;11630;42.660;23.292;2023-05-02T02:11:33;68925.42;;;12.59;100.00
22930;BME280;11630;42.660;23.292;2023-05-02T02:14:04;68938.78;;;12.75;100.00
22930;BME280;11630;42.660;23.292;2023-05-02T02:16:30;68939.86;;;12.78;100.00
22930;BME280;11630;42.660;23.292;2023-05-02T02:19:03;68920.51;;;12.57;100.00
22930;BME280;11630;42.660;23.292;2023-05-02T02:21:33;68917.52;;;12.60;100.00
22930;BME280;11630;42.660;23.292;2023-05-02T02:24:05;68916.16;;;12.55;100.00
22930;BME280;11630;42.660;23.292;2023-05-02T02:26:37;68925.13;;;12.57;100.00
22930;BME280;11630;42.660;23.292;2023-05-02T02:29:07;68910.70;;;12.45;100.00
22930;BME280;11630;42.660;23.292;2023-05-02T02:31:38;68922.14;;;12.58;100.00
22930;BME280;11630;42.660;23.292;2023-05-02T02:34:10;68918.61;;;12.56;100.00
22930;BME280;11630;42.660;23.292;2023-05-02T02:36:52;68915.88;;;12.51;100.00
22930;BME280;11630;42.660;23.292;2023-05-02T02:42:17;68898.44;;;12.30;100.00
22930;BME280;11630;42.660;23.292;2023-05-02T02:45:37;68905.79;;;12.43;100.00
22930;BME280;11630;42.660;23.292;2023-05-02T02:47:46;68913.16;;;12.56;100.00
22930;BME280;11630;42.660;23.292;2023-05-02T02:53:14;68895.44;;;12.39;100.00
22930;BME280;11630;42.660;23.292;2023-05-02T02:59:32;68882.91;;;12.27;100.00
22930;BME280;11630;42.660;23.292;2023-05-02T03:01:14;68874.47;;;12.14;100.00
22930;BME280;11630;42.660;23.292;2023-05-02T03:03:44;68881.82;;;12.19;100.00
22930;BME280;11630;42.660;23.292;2023-05-02T03:06:16;68846.69;;;11.91;100.00
22930;BME280;11630;42.660;23.292;2023-05-02T03:08:48;68848.06;;;11.93;100.00
22930;BME280;11630;42.660;23.292;2023-05-02T03:11:19;68866.86;;;12.12;100.00
22930;BME280;11630;42.660;23.292;2023-05-02T03:13:50;68839.63;;;11.82;100.00
22930;BME280;11630;42.660;23.292;2023-05-02T03:16:37;68838.27;;;11.79;100.00
22930;BME280;11630;42.660;23.292;2023-05-02T03:19:07;68836.90;;;11.84;100.00
22930;BME280;11630;42.660;23.292;2023-05-02T03:21:39;68843.44;;;11.83;100.00
22930;BME280;11630;42.660;23.292;2023-05-02T03:24:09;68826.53;;;11.72;100.00
22930;BME280;11630;42.660;23.292;2023-05-02T03:26:39;68849.69;;;11.97;100.00
22930;BME280;11630;42.660;23.292;2023-05-02T03:29:10;68844.25;;;11.92;100.00
22930;BME280;11630;42.660;23.292;2023-05-02T03:31:40;68869.58;;;12.12;100.00
22930;BME280;11630;42.660;23.292;2023-05-02T03:34:13;68864.94;;;12.09;100.00
22930;BME280;11630;42.660;23.292;2023-05-02T03:36:44;68879.37;;;12.21;100.00
22930;BME280;11630;42.660;23.292;2023-05-02T03:39:14;68885.09;;;12.22;100.00
22930;BME280;11630;42.660;23.292;2023-05-02T03:41:46;68859.50;;;12.01;100.00
22930;BME280;11630;42.660;23.292;2023-05-02T03:44:15;68867.66;;;12.04;100.00
22930;BME280;11630;42.660;23.292;2023-05-02T03:46:46;68882.09;;;12.18;100.00
22930;BME280;11630;42.660;23.292;2023-05-02T03:49:17;68876.38;;;12.12;100.00
22930;BME280;11630;42.660;23.292;2023-05-02T03:51:48;68861.40;;;12.02;100.00
22930;BME280;11630;42.660;23.292;2023-05-02T03:54:18;68864.14;;;12.12;100.00
22930;BME280;11630;42.660;23.292;2023-05-02T03:56:50;68855.95;;;11.97;100.00
22930;BME280;11630;42.660;23.292;2023-05-02T03:59:21;68839.62;;;11.84;100.00
22930;BME280;11630;42.660;23.292;2023-05-02T04:01:52;68833.63;;;11.79;100.00
22930;BME280;11630;42.660;23.292;2023-05-02T04:04:23;68847.52;;;11.93;100.00
22930;BME280;11630;42.660;23.292;2023-05-02T04:06:54;68857.86;;;12.00;100.00
22930;BME280;11630;42.660;23.292;2023-05-02T04:09:24;68863.31;;;12.05;100.00
22930;BME280;11630;42.660;23.292;2023-05-02T04:11:55;68869.58;;;12.12;100.00
22930;BME280;11630;42.660;23.292;2023-05-02T04:14:26;68875.58;;;12.20;100.00
22930;BME280;11630;42.660;23.292;2023-05-02T04:16:57;68879.37;;;12.18;100.00
22930;BME280;11630;42.660;23.292;2023-05-02T04:19:28;68878.83;;;12.23;100.00
22930;BME280;11630;42.660;23.292;2023-05-02T04:21:59;68904.70;;;12.42;100.00
22930;BME280;11630;42.660;23.292;2023-05-02T04:24:33;68925.41;;;12.64;100.00
22930;BME280;11630;42.660;23.292;2023-05-02T04:27:03;68925.69;;;12.60;100.00
22930;BME280;11630;42.660;23.292;2023-05-02T04:29:34;68945.02;;;12.79;100.00
22930;BME280;11630;42.660;23.292;2023-05-02T04:32:07;68939.05;;;12.76;100.00
22930;BME280;11630;42.660;23.292;2023-05-02T04:34:38;68939.05;;;12.71;100.00
22930;BME280;11630;42.660;23.292;2023-05-02T04:37:09;68958.41;;;12.90;100.00
22930;BME280;11630;42.660;23.292;2023-05-02T04:39:39;68964.41;;;12.98;100.00
22930;BME280;11630;42.660;23.292;2023-05-02T04:42:10;68991.67;;;13.23;100.00
22930;BME280;11630;42.660;23.292;2023-05-02T04:44:41;68973.67;;;13.06;100.00
22930;BME280;11630;42.660;23.292;2023-05-02T04:47:12;68985.67;;;13.20;100.00
22930;BME280;11630;42.660;23.292;2023-05-02T04:49:43;69009.10;;;13.39;100.00
22930;BME280;11630;42.660;23.292;2023-05-02T04:52:13;69020.57;;;13.52;100.00
22930;BME280;11630;42.660;23.292;2023-05-02T04:54:44;69022.20;;;13.51;100.00
22930;BME280;11630;42.660;23.292;2023-05-02T04:57:15;68986.77;;;13.18;100.00
22930;BME280;11630;42.660;23.292;2023-05-02T04:59:46;68982.39;;;13.17;100.00
22930;BME280;11630;42.660;23.292;2023-05-02T05:02:17;69023.03;;;13.53;100.00
22930;BME280;11630;42.660;23.292;2023-05-02T05:04:47;69038.56;;;13.66;100.00
22930;BME280;11630;42.660;23.292;2023-05-02T05:07:17;68995.48;;;13.21;100.00
22930;BME280;11630;42.660;23.292;2023-05-02T05:09:48;69005.29;;;13.33;100.00
22930;BME280;11630;42.660;23.292;2023-05-02T05:12:19;69012.92;;;13.40;100.00
22930;BME280;11630;42.660;23.292;2023-05-02T05:14:49;69027.66;;;13.56;100.00
22930;BME280;11630;42.660;23.292;2023-05-02T05:17:20;68999.58;;;13.29;100.00
22930;BME280;11630;42.660;23.292;2023-05-02T05:19:51;69034.75;;;13.60;100.00
22930;BME280;11630;42.660;23.292;2023-05-02T05:22:22;69028.19;;;13.54;100.00
22930;BME280;11630;42.660;23.292;2023-05-02T05:24:53;69031.47;;;13.59;100.00
22930;BME280;11630;42.660;23.292;2023-05-02T05:27:23;69043.46;;;13.68;100.00
22930;BME280;11630;42.660;23.292;2023-05-02T05:29:54;69029.30;;;13.60;100.00
22930;BME280;11630;42.660;23.292;2023-05-02T05:32:25;69060.12;;;13.82;100.00
22930;BME280;11630;42.660;23.292;2023-05-02T05:34:55;69074.03;;;13.95;100.00
22930;BME280;11630;42.660;23.292;2023-05-02T05:37:26;69091.22;;;14.12;98.19
22930;BME280;11630;42.660;23.292;2023-05-02T05:39:58;69107.59;;;14.27;98.00
22930;BME280;11630;42.660;23.292;2023-05-02T05:42:28;69137.64;;;14.45;97.68
22930;BME280;11630;42.660;23.292;2023-05-02T05:44:59;69125.06;;;14.43;96.13
22930;BME280;11630;42.660;23.292;2023-05-02T05:47:30;69119.06;;;14.33;97.58
22930;BME280;11630;42.660;23.292;2023-05-02T05:50:01;69152.09;;;14.66;95.29
22930;BME280;11630;42.660;23.292;2023-05-02T05:52:32;69151.54;;;14.66;94.92
22930;BME280;11630;42.660;23.292;2023-05-02T05:55:03;69154.55;;;14.65;93.53
22930;BME280;11630;42.660;23.292;2023-05-02T05:57:34;69134.61;;;14.56;94.15
22930;BME280;11630;42.660;23.292;2023-05-02T06:00:07;69157.55;;;14.69;94.17
22930;BME280;11630;42.660;23.292;2023-05-02T06:02:37;69164.38;;;14.74;93.53
22930;BME280;11630;42.660;23.292;2023-05-02T06:05:08;69157.55;;;14.71;93.27
22930;BME280;11630;42.660;23.292;2023-05-02T06:07:39;69165.73;;;14.84;92.89
22930;BME280;11630;42.660;23.292;2023-05-02T06:10:10;69210.79;;;15.19;90.25
22930;BME280;11630;42.660;23.292;2023-05-02T06:12:40;69157.81;;;14.80;90.75
22930;BME280;11630;42.660;23.292;2023-05-02T06:15:11;69194.67;;;15.03;90.63
22930;BME280;11630;42.660;23.292;2023-05-02T06:17:41;69192.48;;;15.01;89.53
22930;BME280;11630;42.660;23.292;2023-05-02T06:20:12;69181.03;;;14.93;90.12
22930;BME280;11630;42.660;23.292;2023-05-02T06:22:42;69207.50;;;15.16;87.41
22930;BME280;11630;42.660;23.292;2023-05-02T06:25:11;69234.85;;;15.38;85.51
22930;BME280;11630;42.660;23.292;2023-05-02T06:27:41;69285.65;;;15.87;81.97
22930;BME280;11630;42.660;23.292;2023-05-02T06:30:12;69306.42;;;16.08;79.49
22930;BME280;11630;42.660;23.292;2023-05-02T06:32:43;69275.83;;;15.80;78.83
22930;BME280;11630;42.660;23.292;2023-05-02T06:35:14;69232.11;;;15.40;81.97
22930;BME280;11630;42.660;23.292;2023-05-02T06:37:46;69234.83;;;15.45;79.88
22930;BME280;11630;42.660;23.292;2023-05-02T06:40:17;69279.66;;;15.81;78.04
22930;BME280;11630;42.660;23.292;2023-05-02T06:42:48;69276.36;;;15.81;77.61
22930;BME280;11630;42.660;23.292;2023-05-02T06:45:19;69302.58;;;16.10;74.53
22930;BME280;11630;42.660;23.292;2023-05-02T06:47:50;69271.45;;;15.74;76.01
22930;BME280;11630;42.660;23.292;2023-05-02T06:50:21;69320.64;;;16.18;74.91
22930;BME280;11630;42.660;23.292;2023-05-02T06:52:53;69328.03;;;16.21;72.90
22930;BME280;11630;42.660;23.292;2023-05-02T06:55:23;69349.92;;;16.41;71.72
22930;BME280;11630;42.660;23.292;2023-05-02T06:57:54;69363.34;;;16.45;69.59
22930;BME280;11630;42.660;23.292;2023-05-02T07:00:25;69375.34;;;16.66;67.96
22930;BME280;11630;42.660;23.292;2023-05-02T07:02:55;69381.59;;;16.83;67.03
22930;BME280;11630;42.660;23.292;2023-05-02T07:05:27;69387.41;;;16.67;66.72
22930;BME280;11630;42.660;23.292;2023-05-02T07:07:58;69379.43;;;16.71;67.04
22930;BME280;11630;42.660;23.292;2023-05-02T07:10:29;69367.94;;;16.68;67.00
22930;BME280;11630;42.660;23.292;2023-05-02T07:12:59;69389.28;;;16.80;65.25
22930;BME280;11630;42.660;23.292;2023-05-02T07:15:30;69420.73;;;17.09;63.05
22930;BME280;11630;42.660;23.292;2023-05-02T07:18:01;69464.25;;;17.50;60.90
22930;BME280;11630;42.660;23.292;2023-05-02T07:20:31;69456.86;;;17.45;58.97
22930;BME280;11630;42.660;23.292;2023-05-02T07:23:01;69507.26;;;17.78;57.88
22930;BME280;11630;42.660;23.292;2023-05-02T07:25:32;69463.67;;;17.52;59.41
22930;BME280;11630;42.660;23.292;2023-05-02T07:28:02;69508.05;;;17.85;57.82
22930;BME280;11630;42.660;23.292;2023-05-02T07:30:35;69482.05;;;17.65;56.63
22930;BME280;11630;42.660;23.292;2023-05-02T07:33:08;69534.58;;;18.13;55.79
22930;BME280;11630;42.660;23.292;2023-05-02T07:35:38;69554.07;;;18.24;54.15
22930;BME280;11630;42.660;23.292;2023-05-02T07:38:11;69545.58;;;18.20;53.12
22930;BME280;11630;42.660;23.292;2023-05-02T07:40:42;69561.48;;;18.30;53.58
22930;BME280;11630;42.660;23.292;2023-05-02T07:43:14;69585.30;;;18.53;52.82
22930;BME280;11630;42.660;23.292;2023-05-02T07:45:44;69557.59;;;18.39;53.00
22930;BME280;11630;42.660;23.292;2023-05-02T07:48:15;69579.30;;;18.40;52.10
22930;BME280;11630;42.660;23.292;2023-05-02T07:50:46;69573.52;;;18.43;52.58
22930;BME280;11630;42.660;23.292;2023-05-02T07:53:17;69613.45;;;18.89;50.54
22930;BME280;11630;42.660;23.292;2023-05-02T07:55:48;69633.16;;;19.10;50.41
22930;BME280;11630;42.660;23.292;2023-05-02T07:58:19;69618.45;;;18.76;51.06
22930;BME280;11630;42.660;23.292;2023-05-02T08:00:50;69647.73;;;19.14;49.66
22930;BME280;11630;42.660;23.292;2023-05-02T08:03:21;69610.17;;;18.84;51.28
22930;BME280;11630;42.660;23.292;2023-05-02T08:05:52;69634.89;;;18.91;50.11
22930;BME280;11630;42.660;23.292;2023-05-02T08:08:23;69603.31;;;18.81;50.63
22930;BME280;11630;42.660;23.292;2023-05-02T08:10:54;69545.28;;;18.24;52.07
22930;BME280;11630;42.660;23.292;2023-05-02T08:13:26;69537.94;;;18.01;53.10
22930;BME280;11630;42.660;23.292;2023-05-02T08:15:55;69524.17;;;18.06;53.43
22930;BME280;11630;42.660;23.292;2023-05-02T08:18:26;69562.02;;;18.30;52.99
22930;BME280;11630;42.660;23.292;2023-05-02T08:20:56;69529.94;;;18.10;53.35
22930;BME280;11630;42.660;23.292;2023-05-02T08:23:27;69580.08;;;18.52;53.11
22930;BME280;11630;42.660;23.292;2023-05-02T08:25:58;69619.23;;;18.88;51.29
22930;BME280;11630;42.660;23.292;2023-05-02T08:28:29;69669.44;;;19.25;49.78
22930;BME280;11630;42.660;23.292;2023-05-02T08:30:59;69705.52;;;19.73;49.17
22930;BME280;11630;42.660;23.292;2023-05-02T08:33:30;69752.23;;;20.03;47.90
22930;BME280;11630;42.660;23.292;2023-05-02T08:36:01;69737.41;;;19.89;49.00
22930;BME280;11630;42.660;23.292;2023-05-02T08:38:32;69777.18;;;20.26;46.76
22930;BME280;11630;42.660;23.292;2023-05-02T08:41:08;69771.45;;;20.15;47.44
22930;BME280;11630;42.660;23.292;2023-05-02T08:43:35;69735.18;;;19.95;48.14
22930;BME280;11630;42.660;23.292;2023-05-02T08:46:06;69727.27;;;19.81;48.11
22930;BME280;11630;42.660;23.292;2023-05-02T08:48:39;69801.91;;;20.41;46.95
22930;BME280;11630;42.660;23.292;2023-05-02T08:51:13;69756.31;;;20.12;48.26
22930;BME280;11630;42.660;23.292;2023-05-02T08:53:44;69752.23;;;20.03;47.41
22930;BME280;11630;42.660;23.292;2023-05-02T08:56:15;69720.34;;;19.84;48.62
22930;BME280;11630;42.660;23.292;2023-05-02T08:58:45;69700.91;;;19.65;47.61
22930;BME280;11630;42.660;23.292;2023-05-02T09:01:18;69709.19;;;19.60;47.72
22930;BME280;11630;42.660;23.292;2023-05-02T09:03:49;69728.36;;;19.80;47.00
22930;BME280;11630;42.660;23.292;2023-05-02T09:06:21;69688.88;;;19.49;48.24
22930;BME280;11630;42.660;23.292;2023-05-02T09:08:52;69754.69;;;20.09;53.75
22930;BME280;11630;42.660;23.292;2023-05-02T09:11:22;69778.50;;;20.36;46.42
22930;BME280;11630;42.660;23.292;2023-05-02T09:13:52;69850.38;;;21.01;47.68
22930;BME280;11630;42.660;23.292;2023-05-02T09:16:24;69884.69;;;21.34;45.79
22930;BME280;11630;42.660;23.292;2023-05-02T09:18:56;69989.44;;;22.12;47.25
22930;BME280;11630;42.660;23.292;2023-05-02T09:21:35;69868.01;;;21.10;43.92
22930;BME280;11630;42.660;23.292;2023-05-02T09:24:16;70004.25;;;22.31;42.10
22930;BME280;11630;42.660;23.292;2023-05-02T09:26:58;70028.48;;;22.48;41.63
22930;BME280;11630;42.660;23.292;2023-05-02T09:29:32;70113.31;;;23.35;40.07
22930;BME280;11630;42.660;23.292;2023-05-02T09:32:05;70117.23;;;23.31;39.78
22930;BME280;11630;42.660;23.292;2023-05-02T09:34:36;70056.25;;;22.69;41.65
22930;BME280;11630;42.660;23.292;2023-05-02T09:37:07;70018.28;;;22.42;40.59
22930;BME280;11630;42.660;23.292;2023-05-02T09:39:38;70018.28;;;22.42;40.59
22930;BME280;11630;42.660;23.292;2023-05-02T09:42:09;70032.22;;;22.61;40.13
22930;BME280;11630;42.660;23.292;2023-05-02T09:44:40;69990.78;;;22.17;43.36
22930;BME280;11630;42.660;23.292;2023-05-02T09:47:23;69956.13;;;21.91;40.01
22930;BME280;11630;42.660;23.292;2023-05-02T09:49:46;69997.31;;;22.33;40.33
22930;BME280;11630;42.660;23.292;2023-05-02T09:52:19;70047.42;;;22.66;40.22
22930;BME280;11630;42.660;23.292;2023-05-02T09:54:50;69953.05;;;21.94;40.21
22930;BME280;11630;42.660;23.292;2023-05-02T09:57:21;69981.19;;;22.05;40.32
22930;BME280;11630;42.660;23.292;2023-05-02T09:59:58;70024.78;;;22.58;39.25
22930;BME280;11630;42.660;23.292;2023-05-02T10:02:31;70069.13;;;22.87;38.77
22930;BME280;11630;42.660;23.292;2023-05-02T10:05:03;70051.58;;;22.66;39.42
22930;BME280;11630;42.660;23.292;2023-05-02T10:07:34;70052.02;;;22.79;39.99
22930;BME280;11630;42.660;23.292;2023-05-02T10:10:08;70016.92;;;22.40;38.35
22930;BME280;11630;42.660;23.292;2023-05-02T10:12:39;69942.14;;;21.77;39.71
22930;BME280;11630;42.660;23.292;2023-05-02T10:15:12;69860.30;;;21.05;40.47
22930;BME280;11630;42.660;23.292;2023-05-02T10:17:46;69932.30;;;21.63;41.92
22930;BME280;11630;42.660;23.292;2023-05-02T10:20:21;69922.38;;;21.59;40.26
22930;BME280;11630;42.660;23.292;2023-05-02T10:22:50;69932.25;;;21.70;39.70
22930;BME280;11630;42.660;23.292;2023-05-02T10:25:20;70008.95;;;22.31;41.11
22930;BME280;11630;42.660;23.292;2023-05-02T10:27:51;70028.66;;;22.59;37.12
22930;BME280;11630;42.660;23.292;2023-05-02T10:30:22;70070.00;;;22.81;37.31
22930;BME280;11630;42.660;23.292;2023-05-02T10:32:53;70030.27;;;22.63;36.31
22930;BME280;11630;42.660;23.292;2023-05-02T10:35:25;70087.28;;;23.01;36.31
22930;BME280;11630;42.660;23.292;2023-05-02T10:37:57;70186.89;;;23.88;36.18
22930;BME280;11630;42.660;23.292;2023-05-02T10:40:28;70159.07;;;23.64;34.73
22930;BME280;11630;42.660;23.292;2023-05-02T10:42:59;70157.45;;;23.60;34.62
22930;BME280;11630;42.660;23.292;2023-05-02T10:45:32;70157.45;;;23.60;34.62
22930;BME280;11630;42.660;23.292;2023-05-02T10:48:24;70222.34;;;24.24;35.15
22930;BME280;11630;42.660;23.292;2023-05-02T10:50:55;70149.70;;;23.58;33.47
22930;BME280;11630;42.660;23.292;2023-05-02T10:53:28;70133.48;;;23.42;33.71
22930;BME280;11630;42.660;23.292;2023-05-02T10:56:15;70132.92;;;23.44;33.51
22930;BME280;11630;42.660;23.292;2023-05-02T10:58:48;70188.53;;;23.92;32.74
22930;BME280;11630;42.660;23.292;2023-05-02T11:01:31;70165.66;;;23.73;32.79
22930;BME280;11630;42.660;23.292;2023-05-02T11:04:06;70257.37;;;24.49;32.12
22930;BME280;11630;42.660;23.292;2023-05-02T11:09:31;70160.11;;;23.73;32.54
22930;BME280;11630;42.660;23.292;2023-05-02T11:12:02;70187.34;;;23.99;32.37
22930;BME280;11630;42.660;23.292;2023-05-02T11:17:08;70111.70;;;23.31;33.38
22930;BME280;11630;42.660;23.292;2023-05-02T11:22:31;70190.33;;;24.05;32.83
22930;BME280;11630;42.660;23.292;2023-05-02T11:25:03;70245.77;;;24.44;31.46
22930;BME280;11630;42.660;23.292;2023-05-02T11:27:35;70246.36;;;24.37;31.75
22930;BME280;11630;42.660;23.292;2023-05-02T11:30:11;70248.72;;;24.53;32.48
22930;BME280;11630;42.660;23.292;2023-05-02T11:35:22;70317.89;;;25.09;31.04
22930;BME280;11630;42.660;23.292;2023-05-02T11:37:53;70371.34;;;25.55;30.27
22930;BME280;11630;42.660;23.292;2023-05-02T11:40:28;70391.77;;;25.70;30.59
22930;BME280;11630;42.660;23.292;2023-05-02T11:43:00;70406.63;;;25.86;30.39
22930;BME280;11630;42.660;23.292;2023-05-02T11:45:37;70447.84;;;26.10;29.58
22930;BME280;11630;42.660;23.292;2023-05-02T11:48:12;70384.16;;;25.80;30.58
22930;BME280;11630;42.660;23.292;2023-05-02T11:50:51;70372.05;;;25.43;30.59
22930;BME280;11630;42.660;23.292;2023-05-02T11:53:19;70412.67;;;25.92;29.74
22930;BME280;11630;42.660;23.292;2023-05-02T11:55:53;70267.21;;;24.66;32.02
22930;BME280;11630;42.660;23.292;2023-05-02T11:58:26;70299.42;;;24.93;32.14
22930;BME280;11630;42.660;23.292;2023-05-02T12:00:56;70323.92;;;25.17;31.69
22930;BME280;11630;42.660;23.292;2023-05-02T12:03:30;70253.96;;;24.56;31.60
22930;BME280;11630;42.660;23.292;2023-05-02T12:06:14;70339.66;;;25.27;31.07
22930;BME280;11630;42.660;23.292;2023-05-02T12:08:45;70297.66;;;24.76;32.86
22930;BME280;11630;42.660;23.292;2023-05-02T12:11:16;70281.20;;;24.82;31.66
22930;BME280;11630;42.660;23.292;2023-05-02T12:13:48;70296.45;;;24.84;31.69
22930;BME280;11630;42.660;23.292;2023-05-02T12:16:20;70306.56;;;25.00;31.41
22930;BME280;11630;42.660;23.292;2023-05-02T12:18:51;70301.48;;;24.84;32.37
22930;BME280;11630;42.660;23.292;2023-05-02T12:21:21;70221.00;;;24.19;32.54
22930;BME280;11630;42.660;23.292;2023-05-02T12:23:53;70290.88;;;24.87;31.22
22930;BME280;11630;42.660;23.292;2023-05-02T12:26:26;70309.25;;;24.83;32.15
22930;BME280;11630;42.660;23.292;2023-05-02T12:28:59;70349.47;;;25.46;30.81
22930;BME280;11630;42.660;23.292;2023-05-02T12:31:30;70357.86;;;25.41;30.55
22930;BME280;11630;42.660;23.292;2023-05-02T12:34:01;70330.73;;;25.03;30.95
22930;BME280;11630;42.660;23.292;2023-05-02T12:36:32;70279.55;;;24.81;31.35
22930;BME280;11630;42.660;23.292;2023-05-02T12:39:05;70289.16;;;24.90;31.15
22930;BME280;11630;42.660;23.292;2023-05-02T12:41:39;70399.14;;;25.83;30.96
22930;BME280;11630;42.660;23.292;2023-05-02T12:44:11;70537.08;;;27.00;28.87
22930;BME280;11630;42.660;23.292;2023-05-02T12:46:58;70432.03;;;26.04;29.55
22930;BME280;11630;42.660;23.292;2023-05-02T12:49:28;70451.03;;;26.23;29.40
22930;BME280;11630;42.660;23.292;2023-05-02T12:51:58;70314.11;;;24.98;31.03
22930;BME280;11630;42.660;23.292;2023-05-02T12:54:29;70340.06;;;25.40;29.99
22930;BME280;11630;42.660;23.292;2023-05-02T12:57:00;70348.77;;;25.34;30.14
22930;BME280;11630;42.660;23.292;2023-05-02T12:59:32;70265.29;;;24.63;31.11
22930;BME280;11630;42.660;23.292;2023-05-02T13:02:02;70351.18;;;25.43;29.80
22930;BME280;11630;42.660;23.292;2023-05-02T13:04:40;70285.44;;;24.75;31.01
22930;BME280;11630;42.660;23.292;2023-05-02T13:07:10;70300.75;;;24.98;30.70
22930;BME280;11630;42.660;23.292;2023-05-02T13:09:41;70251.15;;;24.32;31.14
22930;BME280;11630;42.660;23.292;2023-05-02T13:12:12;70286.29;;;24.74;31.10
22930;BME280;11630;42.660;23.292;2023-05-02T13:14:42;70274.38;;;24.70;31.09
22930;BME280;11630;42.660;23.292;2023-05-02T13:17:13;70194.05;;;23.95;31.81
22930;BME280;11630;42.660;23.292;2023-05-02T13:19:44;70218.67;;;24.29;31.20
22930;BME280;11630;42.660;23.292;2023-05-02T13:22:15;70247.70;;;24.44;31.21
22930;BME280;11630;42.660;23.292;2023-05-02T13:24:45;70224.98;;;24.36;31.39
22930;BME280;11630;42.660;23.292;2023-05-02T13:27:16;70204.63;;;24.18;31.68
22930;BME280;11630;42.660;23.292;2023-05-02T13:29:46;70271.38;;;24.66;31.30
22930;BME280;11630;42.660;23.292;2023-05-02T13:32:19;70253.00;;;24.43;30.92
22930;BME280;11630;42.660;23.292;2023-05-02T13:34:50;70168.03;;;23.86;31.41
22930;BME280;11630;42.660;23.292;2023-05-02T13:37:21;70248.25;;;24.45;30.77
22930;BME280;11630;42.660;23.292;2023-05-02T13:39:52;70157.90;;;23.73;31.23
22930;BME280;11630;42.660;23.292;2023-05-02T13:42:23;70187.90;;;23.99;31.31